Time;durP1;ratioP1;P1;durP2;ratioP2;P2;SDS_P1;SDS_P2;PMS_P1;PMS_P2;Temp;Humidity;BMP_temperature;BMP_pressure;BME280_temperature;BME280_humidity;BME280_pressure;Samples;Min_cycle;Max_cycle;Signal;HPM_P1;HPM_P2
2022/04/14 00:00:30;;;;;;;33.10;18.67;;;13.50;99.90;;;;;;5045042;28;20351;-41
2022/04/14 00:02:56;;;;;;;31.70;17.90;;;13.50;99.90;;;;;;5043519;28;20364;-41
2022/04/14 00:05:22;;;;;;;33.28;18.38;;;13.50;99.90;;;;;;5045209;28;20472;-41
2022/04/14 00:07:48;;;;;;;73.15;18.63;;;13.50;99.90;;;;;;5044738;28;20033;-42
2022/04/14 00:10:14;;;;;;;33.95;18.40;;;13.50;99.90;;;;;;5044276;28;20507;-41
2022/04/14 00:12:41;;;;;;;55.97;19.17;;;13.50;99.90;;;;;;5044328;28;20163;-41
2022/04/14 00:15:08;;;;;;;55.20;18.75;;;13.50;99.90;;;;;;5045221;28;20021;-41
2022/04/14 00:17:34;;;;;;;57.75;18.83;;;13.50;99.90;;;;;;5044118;28;20043;-41
2022/04/14 00:20:01;;;;;;;59.63;19.17;;;13.60;99.90;;;;;;5044347;28;20150;-42
2022/04/14 00:22:27;;;;;;;60.08;18.38;;;13.50;99.90;;;;;;5045135;28;20013;-41
2022/04/14 00:24:52;;;;;;;52.58;19.10;;;13.60;99.90;;;;;;5043424;28;20036;-41
2022/04/14 00:27:19;;;;;;;53.47;18.38;;;13.60;99.90;;;;;;5045129;28;20017;-41
2022/04/14 00:29:45;;;;;;;23.33;19.02;;;13.60;99.90;;;;;;5044395;28;20028;-41
2022/04/14 00:32:11;;;;;;;47.92;19.27;;;13.60;99.90;;;;;;5044331;28;20130;-41
2022/04/14 00:34:36;;;;;;;30.67;19.08;;;13.60;99.90;;;;;;5048504;28;20468;-42
2022/04/14 00:37:02;;;;;;;32.00;20.17;;;13.60;99.90;;;;;;5047484;28;20159;-41
2022/04/14 00:39:27;;;;;;;58.65;20.02;;;13.50;99.90;;;;;;5047045;28;20032;-38
2022/04/14 00:41:53;;;;;;;42.97;19.70;;;13.60;99.90;;;;;;5048273;28;20089;-41
2022/04/14 00:44:18;;;;;;;55.03;20.63;;;13.50;99.90;;;;;;5048003;28;20021;-41
2022/04/14 00:46:44;;;;;;;44.58;20.50;;;13.50;99.90;;;;;;5046651;28;20763;-42
2022/04/14 00:49:10;;;;;;;67.40;20.85;;;13.50;99.90;;;;;;5048053;28;20074;-41
2022/04/14 00:51:35;;;;;;;58.67;19.77;;;13.50;99.90;;;;;;5047500;28;20041;-42
2022/04/14 00:54:01;;;;;;;76.53;20.85;;;13.50;99.90;;;;;;5047802;28;20028;-42
2022/04/14 00:56:26;;;;;;;26.90;21.25;;;13.50;99.90;;;;;;5048493;28;20506;-41
2022/04/14 00:58:52;;;;;;;81.35;21.02;;;13.50;99.90;;;;;;5046302;28;20060;-41
2022/04/14 01:01:20;;;;;;;69.25;20.27;;;13.40;99.90;;;;;;5047908;28;20043;-43
2022/04/14 01:03:46;;;;;;;59.55;19.23;;;13.40;99.90;;;;;;5047767;28;20024;-42
2022/04/14 01:06:14;;;;;;;93.18;20.65;;;13.40;99.90;;;;;;5047719;28;20017;-41
2022/04/14 01:09:16;;;;;;;49.85;21.08;;;13.40;99.90;;;;;;5047454;28;20017;-40
2022/04/14 01:11:27;;;;;;;100.43;21.95;;;13.30;99.90;;;;;;5037040;28;20171;-42
2022/04/14 01:13:53;;;;;;;79.68;22.02;;;13.30;99.90;;;;;;5046326;28;20120;-41
2022/04/14 01:16:19;;;;;;;46.05;20.88;;;13.30;99.90;;;;;;5047892;28;20818;-40
2022/04/14 01:18:44;;;;;;;85.82;22.08;;;13.30;99.90;;;;;;5046768;28;20036;-41
2022/04/14 01:21:10;;;;;;;83.85;22.65;;;13.30;99.90;;;;;;5046432;28;20032;-39
2022/04/14 01:23:42;;;;;;;37.30;22.65;;;13.30;99.90;;;;;;5048007;28;20401;-41
2022/04/14 01:26:08;;;;;;;;;;;13.30;99.90;;;;;;5047546;28;20040;-41
2022/04/14 01:28:34;;;;;;;92.35;22.77;;;13.20;99.90;;;;;;5047155;28;19913;-40
2022/04/14 01:30:59;;;;;;;57.85;22.95;;;13.20;99.90;;;;;;5047068;28;20033;-42
2022/04/14 01:33:25;;;;;;;67.47;22.90;;;13.20;99.90;;;;;;5047518;28;20538;-42
2022/04/14 01:35:50;;;;;;;54.58;22.70;;;13.20;99.90;;;;;;5045983;28;20032;-41
2022/04/14 01:38:16;;;;;;;50.00;23.92;;;13.20;99.90;;;;;;5047234;28;20370;-43
2022/04/14 01:40:41;;;;;;;67.68;24.25;;;13.20;99.90;;;;;;5045904;28;20072;-42
2022/04/14 01:43:07;;;;;;;64.72;23.75;;;13.20;99.90;;;;;;5047336;28;20027;-40
2022/04/14 01:45:32;;;;;;;78.20;24.65;;;13.20;99.90;;;;;;5045854;28;20427;-41
2022/04/14 01:47:58;;;;;;;71.63;24.27;;;13.20;99.90;;;;;;5046040;28;20029;-43
2022/04/14 01:50:23;;;;;;;56.78;24.95;;;13.20;99.90;;;;;;5046849;28;20021;-42
2022/04/14 01:52:49;;;;;;;88.18;24.58;;;13.20;99.90;;;;;;5046311;28;20044;-41
2022/04/14 01:55:14;;;;;;;70.05;22.92;;;13.20;99.90;;;;;;5046175;28;20017;-43
2022/04/14 01:57:40;;;;;;;66.03;22.15;;;13.20;99.90;;;;;;5046702;28;20033;-43
2022/04/14 02:00:07;;;;;;;81.72;23.35;;;13.20;99.90;;;;;;5046786;28;20041;-41
2022/04/14 02:02:33;;;;;;;49.65;20.30;;;13.20;99.90;;;;;;5044549;28;20558;-41
2022/04/14 02:04:59;;;;;;;79.03;22.48;;;13.20;99.90;;;;;;5046629;28;20029;-42
2022/04/14 02:07:24;;;;;;;56.20;24.52;;;13.20;99.90;;;;;;5046225;28;20025;-42
2022/04/14 02:09:50;;;;;;;50.72;22.10;;;13.20;99.90;;;;;;5045455;28;20078;-41
2022/04/14 02:12:15;;;;;;;68.55;22.60;;;13.20;99.90;;;;;;5046497;28;20060;-41
2022/04/14 02:14:41;;;;;;;64.90;24.23;;;13.10;99.90;;;;;;5046176;28;20573;-41
2022/04/14 02:17:06;;;;;;;46.95;24.63;;;13.10;99.90;;;;;;5045428;28;20021;-39
2022/04/14 02:19:32;;;;;;;61.38;25.70;;;13.20;99.90;;;;;;5046614;28;20051;-41
2022/04/14 02:21:58;;;;;;;78.35;25.27;;;13.20;99.90;;;;;;5046175;28;20040;-42
2022/04/14 02:24:25;;;;;;;66.55;25.00;;;13.20;99.90;;;;;;5046135;28;20037;-43
2022/04/14 02:26:52;;;;;;;45.40;25.90;;;13.20;99.90;;;;;;5046387;28;20028;-40
2022/04/14 02:29:18;;;;;;;52.20;24.65;;;13.10;99.90;;;;;;5046047;28;20816;-41
2022/04/14 02:31:43;;;;;;;65.68;24.88;;;13.10;99.90;;;;;;5045266;28;20119;-41
2022/04/14 02:34:09;;;;;;;30.38;24.95;;;13.10;99.90;;;;;;5046220;28;20029;-41
2022/04/14 02:36:34;;;;;;;41.20;23.33;;;13.10;99.90;;;;;;5045682;28;20028;-42
2022/04/14 02:39:00;;;;;;;43.75;22.55;;;13.10;99.90;;;;;;5044809;28;20025;-40
2022/04/14 02:41:25;;;;;;;29.63;21.48;;;13.10;99.90;;;;;;5045767;28;20520;-42
2022/04/14 02:43:51;;;;;;;51.80;23.88;;;13.10;99.90;;;;;;5046025;28;20498;-41
2022/04/14 02:46:16;;;;;;;66.88;23.35;;;13.10;99.90;;;;;;5045187;28;20380;-44
2022/04/14 02:48:42;;;;;;;47.50;22.75;;;13.10;99.90;;;;;;5045719;28;20122;-39
2022/04/14 02:51:07;;;;;;;49.97;23.52;;;13.00;99.90;;;;;;5045569;28;20807;-42
2022/04/14 02:53:33;;;;;;;43.92;23.02;;;13.00;99.90;;;;;;5045353;28;20016;-42
2022/04/14 02:55:58;;;;;;;33.53;23.67;;;12.90;99.90;;;;;;5045650;28;20835;-42
2022/04/14 02:58:24;;;;;;;33.63;22.35;;;12.90;99.90;;;;;;5044754;28;20064;-41
2022/04/14 03:00:49;;;;;;;33.92;23.05;;;12.90;99.90;;;;;;5045368;28;20045;-42
2022/04/14 03:03:16;;;;;;;34.40;21.83;;;12.90;99.90;;;;;;5044772;28;20667;-42
2022/04/14 03:05:42;;;;;;;34.47;23.20;;;12.90;99.90;;;;;;5044709;28;20057;-41
2022/04/14 03:08:07;;;;;;;38.00;21.73;;;12.80;99.90;;;;;;5045134;28;20061;-42
2022/04/14 03:10:33;;;;;;;39.13;20.17;;;12.80;99.90;;;;;;5045299;28;20025;-41
2022/04/14 03:12:58;;;;;;;36.25;22.90;;;12.80;99.90;;;;;;5045163;28;20023;-40
2022/04/14 03:15:26;;;;;;;30.80;22.70;;;12.70;99.90;;;;;;5045068;28;20492;-42
2022/04/14 03:17:53;;;;;;;38.78;24.02;;;12.70;99.90;;;;;;5045242;28;20029;-40
2022/04/14 03:20:18;;;;;;;32.22;22.30;;;12.70;99.90;;;;;;5045111;28;20037;-41
2022/04/14 03:22:44;;;;;;;30.90;23.45;;;12.80;99.90;;;;;;5045375;28;20425;-40
2022/04/14 03:25:12;;;;;;;23.63;18.10;;;12.70;99.90;;;;;;5045323;28;20276;-40
2022/04/14 03:27:37;;;;;;;30.75;21.58;;;12.70;99.90;;;;;;5044490;28;20355;-40
2022/04/14 03:30:04;;;;;;;28.63;22.00;;;12.60;99.90;;;;;;5044894;28;20503;-43
2022/04/14 03:32:30;;;;;;;28.77;20.48;;;12.60;99.90;;;;;;5045406;28;20116;-41
2022/04/14 03:34:55;;;;;;;35.80;22.65;;;12.60;99.90;;;;;;5044342;28;20483;-38
2022/04/14 03:37:21;;;;;;;29.92;21.58;;;12.50;99.90;;;;;;5045424;28;20432;-41
2022/04/14 03:39:47;;;;;;;32.53;23.15;;;12.50;99.90;;;;;;5044942;28;20037;-43
2022/04/14 03:42:13;;;;;;;33.83;23.45;;;12.50;99.90;;;;;;5044131;28;20029;-42
2022/04/14 03:44:38;;;;;;;30.52;24.23;;;12.40;99.90;;;;;;5044898;28;20849;-40
2022/04/14 03:47:04;;;;;;;50.20;21.88;;;12.40;99.90;;;;;;5045194;28;20032;-40
2022/04/14 03:49:30;;;;;;;37.97;22.40;;;12.40;99.90;;;;;;5044127;28;20036;-37
2022/04/14 03:51:55;;;;;;;33.28;20.63;;;12.40;99.90;;;;;;5044485;28;20028;-40
2022/04/14 03:54:21;;;;;;;26.70;19.30;;;12.30;99.90;;;;;;5044132;28;20511;-42
2022/04/14 03:56:48;;;;;;;25.85;19.95;;;12.30;99.90;;;;;;5044490;28;20032;-41
2022/04/14 03:59:14;;;;;;;32.20;20.48;;;12.30;99.90;;;;;;5044726;28;20088;-41
2022/04/14 04:01:40;;;;;;;27.88;21.02;;;12.20;99.90;;;;;;5044449;28;20753;-40
2022/04/14 04:04:05;;;;;;;25.63;19.50;;;12.20;99.90;;;;;;5045053;28;20021;-42
2022/04/14 04:06:31;;;;;;;33.22;20.67;;;12.20;99.90;;;;;;5044594;28;20052;-40
2022/04/14 04:08:57;;;;;;;30.15;20.27;;;12.20;99.90;;;;;;5047348;28;20073;-39
2022/04/14 04:11:22;;;;;;;35.90;21.48;;;12.20;99.90;;;;;;5048390;28;20032;-43
2022/04/14 04:13:48;;;;;;;29.88;20.67;;;12.20;99.90;;;;;;5048699;28;20048;-40
2022/04/14 04:16:13;;;;;;;33.80;21.17;;;12.20;99.90;;;;;;5047337;28;20029;-40
2022/04/14 04:18:39;;;;;;;33.80;20.85;;;12.20;99.90;;;;;;5048433;28;20415;-41
2022/04/14 04:21:04;;;;;;;39.42;20.60;;;12.20;99.90;;;;;;5048561;28;20040;-42
2022/04/14 04:23:30;;;;;;;27.17;19.00;;;12.10;99.90;;;;;;5047844;28;20064;-39
2022/04/14 04:25:55;;;;;;;32.78;19.42;;;12.10;99.90;;;;;;5047947;28;20060;-38
2022/04/14 04:28:21;;;;;;;33.78;20.42;;;12.10;99.90;;;;;;5048036;28;20039;-39
2022/04/14 04:30:46;;;;;;;47.13;20.70;;;12.10;99.90;;;;;;5047242;28;20028;-38
2022/04/14 04:33:12;;;;;;;38.95;20.75;;;12.00;99.90;;;;;;5048354;28;20056;-41
2022/04/14 04:35:37;;;;;;;48.90;18.73;;;12.10;99.90;;;;;;5048419;28;20701;-43
2022/04/14 04:38:04;;;;;;;43.20;19.30;;;12.10;99.90;;;;;;5047068;28;20024;-41
2022/04/14 04:40:29;;;;;;;33.85;19.52;;;12.00;99.90;;;;;;5047746;28;20491;-42
2022/04/14 04:42:55;;;;;;;32.55;18.90;;;12.00;99.90;;;;;;5048097;28;20413;-42
2022/04/14 04:45:20;;;;;;;33.28;18.40;;;12.00;99.90;;;;;;5047342;28;20025;-42
2022/04/14 04:47:46;;;;;;;39.80;16.98;;;12.00;99.90;;;;;;5047687;28;20162;-42
2022/04/14 04:50:11;;;;;;;43.85;17.25;;;12.00;99.90;;;;;;5048722;28;20033;-43
2022/04/14 04:52:37;;;;;;;45.13;16.35;;;11.90;99.90;;;;;;5047026;28;20032;-42
2022/04/14 04:55:03;;;;;;;39.65;16.00;;;11.90;99.90;;;;;;5048008;28;20112;-40
2022/04/14 04:57:29;;;;;;;52.78;16.63;;;11.90;99.90;;;;;;5048546;28;20135;-42
2022/04/14 04:59:54;;;;;;;32.40;15.63;;;11.90;99.90;;;;;;5047846;28;20037;-43
2022/04/14 05:02:20;;;;;;;37.85;16.35;;;11.90;99.90;;;;;;5048323;28;20022;-42
2022/04/14 05:04:45;;;;;;;41.17;16.50;;;11.90;99.90;;;;;;5051974;28;20036;-41
2022/04/14 05:07:11;;;;;;;32.35;16.90;;;11.80;99.90;;;;;;5047824;28;20025;-39
2022/04/14 05:09:43;;;;;;;39.22;16.35;;;11.80;99.90;;;;;;5045799;28;20039;-41
2022/04/14 05:12:09;;;;;;;44.42;16.27;;;11.80;99.90;;;;;;5047266;28;20021;-43
2022/04/14 05:14:34;;;;;;;27.98;16.00;;;11.80;99.90;;;;;;5044688;28;20499;-40
2022/04/14 05:17:00;;;;;;;25.70;16.80;;;11.80;99.90;;;;;;5045956;28;20028;-41
2022/04/14 05:19:25;;;;;;;29.80;16.08;;;11.80;99.90;;;;;;5043620;28;20036;-43
2022/04/14 05:21:51;;;;;;;28.20;15.70;;;11.80;99.90;;;;;;5046817;28;20044;-41
2022/04/14 05:24:16;;;;;;;22.83;13.88;;;11.80;99.90;;;;;;5045961;28;20028;-41
2022/04/14 05:26:42;;;;;;;29.73;12.80;;;11.80;99.90;;;;;;5046356;28;20029;-40
2022/04/14 05:29:09;;;;;;;61.85;15.27;;;11.80;99.90;;;;;;5045694;28;20629;-41
2022/04/14 05:31:35;;;;;;;47.30;13.57;;;11.80;99.90;;;;;;5045927;28;20025;-42
2022/04/14 05:34:00;;;;;;;55.47;15.77;;;11.80;99.90;;;;;;5046260;28;20033;-41
2022/04/14 05:36:26;;;;;;;28.95;13.65;;;11.80;99.90;;;;;;5047047;28;20036;-42
2022/04/14 05:38:51;;;;;;;38.78;14.25;;;11.70;99.90;;;;;;5047255;28;20119;-40
2022/04/14 05:41:17;;;;;;;37.42;13.82;;;11.70;99.90;;;;;;5046384;28;20594;-41
2022/04/14 05:43:42;;;;;;;42.42;14.32;;;11.70;99.90;;;;;;5046719;28;20028;-42
2022/04/14 05:46:08;;;;;;;28.02;12.43;;;11.70;99.90;;;;;;5047267;28;20457;-41
2022/04/14 05:48:33;;;;;;;20.88;10.80;;;11.70;99.90;;;;;;5045833;28;20539;-43
2022/04/14 05:50:59;;;;;;;25.55;13.05;;;11.60;99.90;;;;;;5047210;28;20129;-44
2022/04/14 05:53:29;;;;;;;24.65;13.63;;;11.70;99.90;;;;;;5046509;28;20127;-42
2022/04/14 05:55:54;;;;;;;34.00;14.38;;;11.60;99.90;;;;;;5035234;28;20529;-42
2022/04/14 05:58:20;;;;;;;34.13;14.10;;;11.70;99.90;;;;;;5046765;28;20508;-42
2022/04/14 06:00:46;;;;;;;37.10;14.27;;;11.80;99.90;;;;;;5046236;28;20036;-41
2022/04/14 06:03:11;;;;;;;48.22;13.77;;;11.80;99.90;;;;;;5046209;28;20131;-41
2022/04/14 06:05:37;;;;;;;34.85;13.73;;;11.80;99.90;;;;;;5033320;28;20033;-42
2022/04/14 06:08:03;;;;;;;18.13;12.80;;;11.80;99.90;;;;;;5041663;28;20017;-42
2022/04/14 06:10:29;;;;;;;16.63;12.60;;;11.80;99.90;;;;;;5045761;28;20385;-42
2022/04/14 06:12:55;;;;;;;34.78;13.60;;;11.80;99.90;;;;;;5047098;28;20021;-42
2022/04/14 06:15:21;;;;;;;30.70;14.43;;;11.70;99.90;;;;;;5045215;28;20064;-43
2022/04/14 06:17:47;;;;;;;19.38;13.80;;;11.70;99.90;;;;;;5046706;28;20025;-42
2022/04/14 06:20:13;;;;;;;26.15;13.05;;;11.80;99.90;;;;;;5045823;28;20036;-48
2022/04/14 06:22:40;;;;;;;13.05;11.73;;;11.80;99.90;;;;;;5045876;28;20104;-42
2022/04/14 06:25:13;;;;;;;17.83;12.55;;;11.80;99.90;;;;;;5046671;28;20033;-40
2022/04/14 06:27:44;;;;;;;15.05;12.95;;;11.80;99.90;;;;;;5045743;28;20031;-42
2022/04/14 06:30:11;;;;;;;14.02;12.23;;;11.90;99.90;;;;;;5045481;28;20029;-41
2022/04/14 06:32:37;;;;;;;19.27;14.07;;;11.90;99.90;;;;;;5045799;28;20051;-41
2022/04/14 06:35:04;;;;;;;26.05;14.75;;;11.90;99.90;;;;;;5046416;28;20564;-43
2022/04/14 06:37:29;;;;;;;23.77;16.13;;;11.90;99.90;;;;;;5045150;28;20021;-41
2022/04/14 06:39:54;;;;;;;25.00;16.73;;;12.00;99.90;;;;;;5046584;28;20037;-43
2022/04/14 06:42:23;;;;;;;19.70;14.48;;;12.00;99.90;;;;;;5046127;28;20025;-42
2022/04/14 06:44:48;;;;;;;21.80;15.55;;;12.10;99.90;;;;;;5045258;28;20036;-42
2022/04/14 06:47:14;;;;;;;16.45;14.30;;;12.10;99.90;;;;;;5045820;28;20017;-41
2022/04/14 06:49:39;;;;;;;21.23;15.80;;;12.20;99.90;;;;;;5045727;28;20033;-42
2022/04/14 06:52:05;;;;;;;19.40;17.08;;;12.20;99.90;;;;;;5045340;28;20028;-42
2022/04/14 06:54:31;;;;;;;17.17;15.38;;;12.20;99.90;;;;;;5045127;28;20477;-42
2022/04/14 06:56:56;;;;;;;21.27;16.55;;;12.30;99.90;;;;;;5045503;28;20088;-41
2022/04/14 06:59:22;;;;;;;20.08;16.15;;;12.20;99.90;;;;;;5045036;28;20081;-42
2022/04/14 07:01:47;;;;;;;17.88;15.93;;;12.20;99.90;;;;;;5045503;28;20068;-41
2022/04/14 07:04:13;;;;;;;20.40;16.90;;;12.20;99.90;;;;;;5044675;28;20027;-42
2022/04/14 07:06:38;;;;;;;16.90;15.02;;;12.30;99.90;;;;;;5045677;28;20049;-41
2022/04/14 07:09:07;;;;;;;18.27;15.68;;;12.30;99.90;;;;;;5045618;28;20024;-43
2022/04/14 07:11:33;;;;;;;14.88;13.38;;;12.30;99.90;;;;;;5044613;28;20017;-42
2022/04/14 07:13:59;;;;;;;17.50;15.60;;;12.30;99.90;;;;;;5046282;28;20032;-42
2022/04/14 07:16:25;;;;;;;17.88;15.77;;;12.40;99.90;;;;;;5045129;28;20017;-42
2022/04/14 07:18:50;;;;;;;19.05;16.75;;;12.50;99.90;;;;;;5045265;28;20111;-42
2022/04/14 07:21:16;;;;;;;19.98;17.40;;;12.50;99.90;;;;;;5044700;28;20033;-41
2022/04/14 07:23:42;;;;;;;18.23;15.52;;;12.60;99.90;;;;;;5045353;28;20741;-42
2022/04/14 07:26:07;;;;;;;22.20;19.02;;;12.60;99.90;;;;;;5045236;28;20032;-42
2022/04/14 07:28:33;;;;;;;21.58;19.10;;;12.60;99.90;;;;;;5044875;28;20021;-42
2022/04/14 07:30:58;;;;;;;23.13;19.45;;;12.70;99.90;;;;;;5043797;28;20044;-42
2022/04/14 07:33:24;;;;;;;20.45;18.00;;;12.80;99.90;;;;;;5043855;28;20496;-42
2022/04/14 07:35:51;;;;;;;21.63;17.85;;;12.90;99.90;;;;;;5046089;28;20472;-44
2022/04/14 07:38:16;;;;;;;18.95;16.17;;;12.90;99.90;;;;;;5045098;28;20079;-42
2022/04/14 07:40:42;;;;;;;20.35;18.15;;;12.90;99.90;;;;;;5044455;28;20037;-41
2022/04/14 07:43:07;;;;;;;22.30;19.15;;;12.80;99.90;;;;;;5047387;28;20488;-42
2022/04/14 07:45:33;;;;;;;20.23;16.98;;;12.80;99.90;;;;;;5049011;28;20547;-45
2022/04/14 07:48:02;;;;;;;23.80;19.67;;;12.70;99.90;;;;;;5048725;28;20813;-42
2022/04/14 07:50:28;;;;;;;20.70;18.13;;;12.70;99.90;;;;;;5049180;28;20040;-42
2022/04/14 07:52:56;;;;;;;19.08;16.70;;;12.70;99.90;;;;;;5049513;28;20020;-43
2022/04/14 07:55:25;;;;;;;18.67;16.13;;;12.70;99.90;;;;;;5048631;28;20547;-42
2022/04/14 07:57:55;;;;;;;20.20;17.90;;;12.70;99.90;;;;;;5049146;28;20072;-42
2022/04/14 08:00:21;;;;;;;17.42;15.30;;;12.70;99.90;;;;;;5048542;28;20419;-42
2022/04/14 08:02:56;;;;;;;21.00;18.15;;;12.80;99.90;;;;;;5048705;28;20017;-42
2022/04/14 08:05:26;;;;;;;20.25;17.45;;;12.80;99.90;;;;;;5039353;28;20037;-41
2022/04/14 08:07:52;;;;;;;21.58;16.92;;;12.90;99.90;;;;;;5047937;28;20031;-42
2022/04/14 08:10:17;;;;;;;19.23;16.65;;;12.90;99.90;;;;;;5049037;28;20028;-42
2022/04/14 08:12:43;;;;;;;16.70;14.00;;;13.00;99.90;;;;;;5048653;28;20080;-40
2022/04/14 08:15:12;;;;;;;17.38;15.15;;;13.10;99.90;;;;;;5048424;28;20044;-44
2022/04/14 08:17:38;;;;;;;16.63;13.23;;;13.20;99.90;;;;;;5049123;28;20079;-41
2022/04/14 08:20:05;;;;;;;16.35;13.48;;;13.40;99.90;;;;;;5048434;28;20029;-42
2022/04/14 08:22:58;;;;;;;15.57;13.73;;;13.50;99.90;;;;;;5047558;28;20174;-42
2022/04/14 08:25:32;;;;;;;13.90;12.50;;;13.80;99.90;;;;;;5048142;28;20017;-43
2022/04/14 08:27:59;;;;;;;16.65;12.98;;;14.00;99.90;;;;;;5049176;28;20431;-42
2022/04/14 08:30:26;;;;;;;12.98;10.90;;;14.30;99.90;;;;;;5046949;28;20017;-41
2022/04/14 08:32:55;;;;;;;13.02;10.80;;;14.50;99.90;;;;;;5048246;28;20539;-43
2022/04/14 08:35:21;;;;;;;11.35;9.60;;;14.80;99.90;;;;;;5048260;28;20033;-43
2022/04/14 08:37:49;;;;;;;14.10;11.27;;;15.00;99.90;;;;;;5047992;28;20450;-41
2022/04/14 08:40:16;;;;;;;12.63;11.32;;;15.20;99.90;;;;;;5048279;28;20041;-41
2022/04/14 08:42:51;;;;;;;15.30;12.40;;;15.40;99.90;;;;;;5047513;28;20040;-41
2022/04/14 08:45:21;;;;;;;13.60;11.95;;;15.50;99.90;;;;;;5048169;28;20025;-43
2022/04/14 08:47:53;;;;;;;12.80;10.80;;;15.70;99.90;;;;;;5048077;28;20497;-41
2022/04/14 08:50:18;;;;;;;11.00;9.90;;;15.80;99.90;;;;;;5046862;28;20527;-43
2022/04/14 08:52:44;;;;;;;14.10;10.90;;;15.90;99.90;;;;;;5047592;28;20037;-42
2022/04/14 08:55:11;;;;;;;13.38;11.98;;;15.90;99.90;;;;;;5048051;28;20054;-43
2022/04/14 08:57:38;;;;;;;12.32;11.02;;;15.90;99.90;;;;;;5046528;28;20040;-42
2022/04/14 09:00:06;;;;;;;13.07;10.52;;;15.80;99.90;;;;;;5047662;28;20037;-42
2022/04/14 09:02:33;;;;;;;13.85;11.45;;;15.70;99.90;;;;;;5047395;28;20113;-41
2022/04/14 09:04:59;;;;;;;13.30;11.23;;;15.60;99.90;;;;;;5046862;28;20068;-42
2022/04/14 09:07:25;;;;;;;10.55;9.52;;;15.50;99.90;;;;;;5047412;28;20132;-42
2022/04/14 09:09:51;;;;;;;11.95;10.50;;;15.40;99.90;;;;;;5047818;28;20417;-42
2022/04/14 09:12:17;;;;;;;14.05;11.20;;;15.30;99.90;;;;;;5046515;28;20025;-42
2022/04/14 09:14:43;;;;;;;13.30;11.18;;;15.20;99.90;;;;;;5047791;28;20025;-40
2022/04/14 09:17:12;;;;;;;12.35;10.00;;;15.20;99.90;;;;;;5048444;28;20063;-43
2022/04/14 09:19:38;;;;;;;11.45;9.60;;;15.20;99.90;;;;;;5046849;28;20021;-44
2022/04/14 09:22:10;;;;;;;11.85;10.02;;;15.20;99.90;;;;;;5047352;28;20033;-42
2022/04/14 09:24:55;;;;;;;13.65;9.02;;;15.20;99.90;;;;;;5047221;28;20024;-42
2022/04/14 09:27:31;;;;;;;14.10;10.40;;;15.30;99.90;;;;;;5047578;28;20126;-43
2022/04/14 09:29:59;;;;;;;11.15;9.07;;;15.30;99.90;;;;;;5047577;28;20033;-43
2022/04/14 09:32:30;;;;;;;10.05;8.32;;;15.40;99.90;;;;;;5046478;28;20122;-42
2022/04/14 09:34:57;;;;;;;10.25;8.45;;;15.50;99.90;;;;;;5047314;28;20029;-43
2022/04/14 09:37:23;;;;;;;11.55;8.50;;;15.50;99.90;;;;;;5047073;28;20021;-42
2022/04/14 09:39:55;;;;;;;9.25;8.35;;;15.50;99.90;;;;;;5047014;28;20082;-42
2022/04/14 09:42:22;;;;;;;9.02;7.55;;;15.60;99.90;;;;;;5046977;28;20032;-42
2022/04/14 09:44:48;;;;;;;10.80;7.72;;;15.70;99.90;;;;;;5047211;28;20029;-42
2022/04/14 09:47:47;;;;;;;9.25;6.60;;;15.70;99.90;;;;;;5046088;28;20025;-41
2022/04/14 09:50:26;;;;;;;8.35;6.93;;;15.80;99.90;;;;;;5025616;28;20045;-43
2022/04/14 09:53:08;;;;;;;8.13;6.32;;;15.90;99.90;;;;;;5044824;28;20059;-42
2022/04/14 09:55:38;;;;;;;8.30;6.82;;;15.90;99.90;;;;;;5046371;28;20029;-44
2022/04/14 09:58:05;;;;;;;8.48;6.82;;;15.90;99.90;;;;;;5046441;28;20229;-42
2022/04/14 10:00:42;;;;;;;9.05;7.20;;;16.00;99.90;;;;;;5046057;28;20052;-44
2022/04/14 10:03:19;;;;;;;7.30;6.40;;;16.00;99.90;;;;;;5046844;28;20056;-43
2022/04/14 10:05:46;;;;;;;10.13;8.02;;;16.10;99.90;;;;;;5026011;28;20030;-44
2022/04/14 10:08:13;;;;;;;9.98;7.28;;;16.20;99.90;;;;;;5041826;28;20044;-42
2022/04/14 10:10:41;;;;;;;8.30;6.95;;;16.30;99.90;;;;;;5046670;28;20028;-41
2022/04/14 10:13:10;;;;;;;6.80;6.10;;;16.40;99.90;;;;;;5046492;28;20112;-43
2022/04/14 10:15:38;;;;;;;7.55;6.25;;;16.40;99.90;;;;;;5045827;28;20376;-41
2022/04/14 10:18:17;;;;;;;6.78;5.70;;;16.50;99.90;;;;;;5046410;28;20079;-43
2022/04/14 10:20:45;;;;;;;7.93;6.95;;;16.50;99.90;;;;;;5046264;28;20048;-42
2022/04/14 10:23:12;;;;;;;9.18;6.85;;;16.60;99.90;;;;;;5045614;28;20033;-42
2022/04/14 10:25:38;;;;;;;7.70;6.43;;;16.70;99.90;;;;;;5045968;28;20090;-43
2022/04/14 10:28:06;;;;;;;8.75;7.10;;;16.80;99.90;;;;;;5046630;28;20111;-41
2022/04/14 10:30:32;;;;;;;7.13;5.80;;;16.90;99.90;;;;;;5046001;28;20380;-40
2022/04/14 10:32:58;;;;;;;10.95;7.85;;;17.00;99.90;;;;;;5046508;28;20020;-43
2022/04/14 10:35:29;;;;;;;11.65;7.07;;;17.10;99.90;;;;;;5045368;28;20435;-41
2022/04/14 10:38:07;;;;;;;8.45;6.72;;;17.20;99.90;;;;;;5046282;28;20029;-42
2022/04/14 10:40:34;;;;;;;9.55;6.93;;;17.40;99.90;;;;;;5035642;28;20106;-42
2022/04/14 10:43:01;;;;;;;7.75;6.13;;;17.40;99.90;;;;;;5045795;28;20033;-43
2022/04/14 10:45:26;;;;;;;8.68;6.93;;;17.50;99.90;;;;;;5045492;28;20044;-43
2022/04/14 10:47:54;;;;;;;9.73;6.82;;;17.60;99.90;;;;;;5045540;28;20381;-42
2022/04/14 10:50:28;;;;;;;8.95;6.93;;;17.70;99.90;;;;;;5042511;28;20037;-42
2022/04/14 10:53:06;;;;;;;7.95;6.80;;;17.90;99.90;;;;;;5046422;28;20041;-43
2022/04/14 10:55:37;;;;;;;8.88;6.60;;;18.00;99.90;;;;;;5042572;28;20045;-44
2022/04/14 10:58:03;;;;;;;7.93;6.30;;;18.20;99.90;;;;;;5045138;28;20436;-42
2022/04/14 11:00:34;;;;;;;8.07;6.40;;;18.30;99.90;;;;;;5045051;28;20629;-41
2022/04/14 11:03:11;;;;;;;7.72;6.35;;;18.40;99.90;;;;;;5046399;28;20025;-41
2022/04/14 11:05:48;;;;;;;6.82;6.03;;;18.40;99.90;;;;;;5044467;28;20033;-42
2022/04/14 11:08:31;;;;;;;8.15;6.43;;;18.50;99.90;;;;;;5045278;28;20583;-39
2022/04/14 11:11:16;;;;;;;8.27;5.72;;;18.50;99.90;;;;;;5044386;28;20025;-41
2022/04/14 11:13:51;;;;;;;7.43;5.28;;;18.50;99.90;;;;;;5045522;28;20476;-42
2022/04/14 11:16:44;;;;;;;7.70;4.72;;;18.50;99.90;;;;;;5042456;28;20017;-41
2022/04/14 11:19:19;;;;;;;6.00;4.82;;;18.50;99.90;;;;;;5044410;28;20013;-42
2022/04/14 11:22:03;;;;;;;8.38;6.32;;;18.60;99.90;;;;;;5045520;28;20036;-41
2022/04/14 11:24:40;;;;;;;7.00;4.93;;;18.70;99.90;;;;;;5044044;28;20417;-41
2022/04/14 11:27:22;;;;;;;7.28;4.20;;;18.80;99.90;;;;;;5035578;28;20523;-40
2022/04/14 11:29:51;;;;;;;7.03;4.75;;;18.90;99.90;;;;;;5045341;28;20055;-39
2022/04/14 11:32:36;;;;;;;6.32;4.78;;;19.00;99.90;;;;;;5044971;28;20057;-41
2022/04/14 11:35:15;;;;;;;7.57;4.72;;;19.10;99.90;;;;;;5045140;28;20036;-42
2022/04/14 11:37:43;;;;;;;7.03;4.10;;;19.20;99.90;;;;;;5045014;28;20174;-40
2022/04/14 11:40:22;;;;;;;4.22;3.30;;;19.20;99.90;;;;;;5044436;28;20025;-41
2022/04/14 11:42:50;;;;;;;5.80;3.10;;;19.20;99.90;;;;;;5045089;28;20037;-41
2022/04/14 11:45:26;;;;;;;5.03;3.30;;;19.10;99.90;;;;;;5044932;28;20025;-42
2022/04/14 11:48:00;;;;;;;5.15;3.08;;;19.20;99.90;;;;;;5044927;28;20115;-42
2022/04/14 11:50:29;;;;;;;4.35;3.08;;;19.10;99.90;;;;;;5045321;28;20039;-43
2022/04/14 11:52:56;;;;;;;5.57;3.40;;;19.20;99.90;;;;;;5044913;28;20025;-43
2022/04/14 11:55:38;;;;;;;4.97;3.53;;;19.30;99.90;;;;;;5045220;28;20032;-42
2022/04/14 11:58:12;;;;;;;6.82;4.60;;;19.40;99.90;;;;;;5034683;28;20055;-41
2022/04/14 12:00:49;;;;;;;6.55;3.85;;;19.40;99.90;;;;;;5044358;28;20033;-43
2022/04/14 12:03:16;;;;;;;5.43;3.42;;;19.40;99.90;;;;;;5034749;28;20087;-43
2022/04/14 12:05:51;;;;;;;7.22;4.45;;;19.40;99.90;;;;;;5044785;28;20107;-42
2022/04/14 12:08:17;;;;;;;5.47;3.53;;;19.50;99.90;;;;;;5044498;28;20028;-40
2022/04/14 12:10:44;;;;;;;4.65;3.58;;;19.50;99.90;;;;;;5044865;28;20040;-41
2022/04/14 12:13:11;;;;;;;10.27;5.47;;;19.50;99.90;;;;;;5045001;28;20036;-41
2022/04/14 12:15:37;;;;;;;5.20;4.30;;;19.30;99.90;;;;;;5043687;28;20575;-40
2022/04/14 12:18:06;;;;;;;8.93;4.53;;;19.20;99.90;;;;;;5044665;28;20025;-41
2022/04/14 12:20:46;;;;;;;4.03;3.63;;;19.00;99.90;;;;;;5044251;28;20090;-40
2022/04/14 12:23:11;;;;;;;5.45;4.47;;;18.90;99.90;;;;;;5044959;28;20075;-38
2022/04/14 12:25:38;;;;;;;5.32;3.92;;;18.90;99.90;;;;;;5044401;28;20722;-43
2022/04/14 12:28:05;;;;;;;5.47;3.83;;;18.80;99.90;;;;;;5044141;28;20017;-42
2022/04/14 12:30:31;;;;;;;5.22;3.95;;;18.80;99.90;;;;;;5048332;28;20067;-38
2022/04/14 12:33:04;;;;;;;4.10;3.40;;;18.80;99.90;;;;;;5048456;28;20017;-41